sensor_id;sensor_type;location;lat;lon;timestamp;P1;durP1;ratioP1;P2;durP2;ratioP2
30466;SDS011;17258;52.560;13.046;2023-06-22T00:01:18;6.70;;;5.70;;
30466;SDS011;17258;52.560;13.046;2023-06-22T00:11:20;5.75;;;5.28;;
30466;SDS011;17258;52.560;13.046;2023-06-22T00:21:21;6.10;;;5.57;;
30466;SDS011;17258;52.560;13.046;2023-06-22T00:31:21;6.13;;;5.17;;
30466;SDS011;17258;52.560;13.046;2023-06-22T00:41:22;5.17;;;4.77;;
30466;SDS011;17258;52.560;13.046;2023-06-22T00:51:23;5.63;;;5.13;;
30466;SDS011;17258;52.560;13.046;2023-06-22T01:01:24;5.47;;;4.97;;
30466;SDS011;17258;52.560;13.046;2023-06-22T01:11:45;5.60;;;5.10;;
30466;SDS011;17258;52.560;13.046;2023-06-22T01:21:52;5.07;;;4.57;;
30466;SDS011;17258;52.560;13.046;2023-06-22T01:31:56;5.55;;;5.15;;
30466;SDS011;17258;52.560;13.046;2023-06-22T01:41:57;5.60;;;4.85;;
30466;SDS011;17258;52.560;13.046;2023-06-22T01:52:00;5.32;;;4.82;;
30466;SDS011;17258;52.560;13.046;2023-06-22T02:02:02;6.32;;;5.15;;
30466;SDS011;17258;52.560;13.046;2023-06-22T02:12:10;5.13;;;4.63;;
30466;SDS011;17258;52.560;13.046;2023-06-22T02:22:12;4.82;;;4.50;;
30466;SDS011;17258;52.560;13.046;2023-06-22T02:32:16;6.57;;;4.85;;
30466;SDS011;17258;52.560;13.046;2023-06-22T02:42:17;5.30;;;4.90;;
30466;SDS011;17258;52.560;13.046;2023-06-22T02:52:20;4.50;;;3.97;;
30466;SDS011;17258;52.560;13.046;2023-06-22T03:02:21;4.80;;;4.40;;
30466;SDS011;17258;52.560;13.046;2023-06-22T03:12:22;8.77;;;4.95;;
30466;SDS011;17258;52.560;13.046;2023-06-22T03:22:25;5.30;;;4.80;;
30466;SDS011;17258;52.560;13.046;2023-06-22T03:32:26;5.43;;;5.00;;
30466;SDS011;17258;52.560;13.046;2023-06-22T03:42:28;4.80;;;4.40;;
30466;SDS011;17258;52.560;13.046;2023-06-22T03:52:29;5.10;;;4.73;;
30466;SDS011;17258;52.560;13.046;2023-06-22T04:02:30;5.25;;;4.60;;
30466;SDS011;17258;52.560;13.046;2023-06-22T04:12:31;5.67;;;5.10;;
30466;SDS011;17258;52.560;13.046;2023-06-22T04:22:31;5.57;;;5.07;;
30466;SDS011;17258;52.560;13.046;2023-06-22T04:32:32;6.50;;;6.00;;
30466;SDS011;17258;52.560;13.046;2023-06-22T04:42:37;13.13;;;12.13;;
30466;SDS011;17258;52.560;13.046;2023-06-22T04:52:38;10.40;;;9.32;;
30466;SDS011;17258;52.560;13.046;2023-06-22T05:02:40;12.23;;;11.53;;
30466;SDS011;17258;52.560;13.046;2023-06-22T05:12:41;14.15;;;13.30;;
30466;SDS011;17258;52.560;13.046;2023-06-22T05:22:42;14.45;;;13.00;;
30466;SDS011;17258;52.560;13.046;2023-06-22T05:32:43;16.63;;;15.63;;
30466;SDS011;17258;52.560;13.046;2023-06-22T05:42:44;17.73;;;16.63;;
30466;SDS011;17258;52.560;13.046;2023-06-22T05:52:47;15.90;;;14.80;;
30466;SDS011;17258;52.560;13.046;2023-06-22T06:02:48;16.40;;;15.40;;
30466;SDS011;17258;52.560;13.046;2023-06-22T06:12:49;17.30;;;16.20;;
30466;SDS011;17258;52.560;13.046;2023-06-22T06:22:55;14.32;;;13.43;;
30466;SDS011;17258;52.560;13.046;2023-06-22T06:33:04;14.52;;;13.63;;
30466;SDS011;17258;52.560;13.046;2023-06-22T06:43:09;11.60;;;10.90;;
30466;SDS011;17258;52.560;13.046;2023-06-22T06:53:09;17.33;;;16.03;;
30466;SDS011;17258;52.560;13.046;2023-06-22T07:03:10;13.27;;;12.57;;
30466;SDS011;17258;52.560;13.046;2023-06-22T07:13:18;12.70;;;12.00;;
30466;SDS011;17258;52.560;13.046;2023-06-22T07:23:19;11.63;;;11.02;;
30466;SDS011;17258;52.560;13.046;2023-06-22T07:33:22;10.83;;;10.23;;
30466;SDS011;17258;52.560;13.046;2023-06-22T07:43:23;14.48;;;13.70;;
30466;SDS011;17258;52.560;13.046;2023-06-22T07:53:26;11.45;;;10.75;;
30466;SDS011;17258;52.560;13.046;2023-06-22T08:03:30;15.20;;;14.30;;
30466;SDS011;17258;52.560;13.046;2023-06-22T08:13:31;16.53;;;15.53;;
30466;SDS011;17258;52.560;13.046;2023-06-22T08:23:37;16.70;;;15.80;;
30466;SDS011;17258;52.560;13.046;2023-06-22T08:33:41;16.67;;;15.35;;
30466;SDS011;17258;52.560;13.046;2023-06-22T08:43:45;16.98;;;15.98;;
30466;SDS011;17258;52.560;13.046;2023-06-22T08:53:52;16.73;;;15.68;;
30466;SDS011;17258;52.560;13.046;2023-06-22T09:03:53;16.80;;;15.80;;
30466;SDS011;17258;52.560;13.046;2023-06-22T09:13:57;17.50;;;16.38;;
30466;SDS011;17258;52.560;13.046;2023-06-22T09:23:58;15.27;;;14.48;;
30466;SDS011;17258;52.560;13.046;2023-06-22T09:34:05;1.40;;;1.30;;
30466;SDS011;17258;52.560;13.046;2023-06-22T09:44:06;17.80;;;16.63;;
30466;SDS011;17258;52.560;13.046;2023-06-22T09:54:06;17.83;;;16.70;;
30466;SDS011;17258;52.560;13.046;2023-06-22T10:04:07;1.73;;;1.63;;
30466;SDS011;17258;52.560;13.046;2023-06-22T10:14:08;15.47;;;14.67;;
30466;SDS011;17258;52.560;13.046;2023-06-22T10:24:12;1.60;;;1.45;;
30466;SDS011;17258;52.560;13.046;2023-06-22T10:34:12;3.03;;;2.03;;
30466;SDS011;17258;52.560;13.046;2023-06-22T10:54:20;2.28;;;2.08;;
30466;SDS011;17258;52.560;13.046;2023-06-22T11:04:21;2.33;;;2.10;;
30466;SDS011;17258;52.560;13.046;2023-06-22T11:14:22;2.35;;;2.25;;
30466;SDS011;17258;52.560;13.046;2023-06-22T11:24:23;5.13;;;2.50;;
30466;SDS011;17258;52.560;13.046;2023-06-22T11:34:23;4.20;;;3.90;;
30466;SDS011;17258;52.560;13.046;2023-06-22T11:44:24;3.75;;;3.47;;
30466;SDS011;17258;52.560;13.046;2023-06-22T11:54:25;5.27;;;4.87;;
30466;SDS011;17258;52.560;13.046;2023-06-22T12:04:25;12.50;;;11.87;;
30466;SDS011;17258;52.560;13.046;2023-06-22T12:14:26;10.15;;;9.55;;
30466;SDS011;17258;52.560;13.046;2023-06-22T12:24:27;3.63;;;3.33;;
30466;SDS011;17258;52.560;13.046;2023-06-22T12:34:29;2.92;;;2.58;;
30466;SDS011;17258;52.560;13.046;2023-06-22T12:44:30;3.45;;;3.13;;
30466;SDS011;17258;52.560;13.046;2023-06-22T12:54:33;2.63;;;2.40;;
30466;SDS011;17258;52.560;13.046;2023-06-22T13:04:33;2.50;;;2.30;;
30466;SDS011;17258;52.560;13.046;2023-06-22T13:14:37;2.80;;;2.60;;
30466;SDS011;17258;52.560;13.046;2023-06-22T13:24:37;2.30;;;2.10;;
30466;SDS011;17258;52.560;13.046;2023-06-22T13:34:38;2.67;;;2.47;;
30466;SDS011;17258;52.560;13.046;2023-06-22T13:44:42;2.83;;;2.60;;
30466;SDS011;17258;52.560;13.046;2023-06-22T13:54:52;3.03;;;2.33;;
30466;SDS011;17258;52.560;13.046;2023-06-22T14:04:55;3.15;;;2.63;;
30466;SDS011;17258;52.560;13.046;2023-06-22T14:14:59;2.33;;;2.13;;
30466;SDS011;17258;52.560;13.046;2023-06-22T14:25:04;2.67;;;2.38;;
30466;SDS011;17258;52.560;13.046;2023-06-22T14:35:05;2.80;;;2.60;;
30466;SDS011;17258;52.560;13.046;2023-06-22T14:45:06;3.03;;;2.60;;
30466;SDS011;17258;52.560;13.046;2023-06-22T14:55:10;2.22;;;2.13;;
30466;SDS011;17258;52.560;13.046;2023-06-22T15:05:13;2.72;;;2.53;;
30466;SDS011;17258;52.560;13.046;2023-06-22T15:15:20;2.65;;;2.45;;
30466;SDS011;17258;52.560;13.046;2023-06-22T15:25:20;2.70;;;2.50;;
30466;SDS011;17258;52.560;13.046;2023-06-22T15:35:27;2.42;;;2.28;;
30466;SDS011;17258;52.560;13.046;2023-06-22T15:45:28;2.47;;;2.35;;
30466;SDS011;17258;52.560;13.046;2023-06-22T15:55:37;10.75;;;2.78;;
30466;SDS011;17258;52.560;13.046;2023-06-22T16:05:42;3.03;;;2.58;;
30466;SDS011;17258;52.560;13.046;2023-06-22T16:15:46;2.08;;;1.88;;
30466;SDS011;17258;52.560;13.046;2023-06-22T16:25:46;2.60;;;2.40;;
30466;SDS011;17258;52.560;13.046;2023-06-22T16:35:47;2.72;;;2.53;;
30466;SDS011;17258;52.560;13.046;2023-06-22T16:45:51;2.42;;;2.28;;
30466;SDS011;17258;52.560;13.046;2023-06-22T16:56:03;2.75;;;2.55;;
30466;SDS011;17258;52.560;13.046;2023-06-22T17:16:11;2.80;;;2.60;;
30466;SDS011;17258;52.560;13.046;2023-06-22T17:26:15;2.45;;;2.33;;
30466;SDS011;17258;52.560;13.046;2023-06-22T17:36:17;2.67;;;2.47;;
30466;SDS011;17258;52.560;13.046;2023-06-22T17:46:20;2.40;;;2.20;;
30466;SDS011;17258;52.560;13.046;2023-06-22T17:56:25;2.80;;;2.53;;
30466;SDS011;17258;52.560;13.046;2023-06-22T18:06:27;2.13;;;2.03;;
30466;SDS011;17258;52.560;13.046;2023-06-22T18:16:28;2.55;;;2.35;;
30466;SDS011;17258;52.560;13.046;2023-06-22T18:26:33;2.53;;;2.33;;
30466;SDS011;17258;52.560;13.046;2023-06-22T18:36:43;2.95;;;2.65;;
30466;SDS011;17258;52.560;13.046;2023-06-22T18:46:50;3.33;;;2.78;;
30466;SDS011;17258;52.560;13.046;2023-06-22T18:56:55;6.43;;;2.80;;
30466;SDS011;17258;52.560;13.046;2023-06-22T19:07:01;3.37;;;3.10;;
30466;SDS011;17258;52.560;13.046;2023-06-22T19:17:02;3.13;;;2.60;;
30466;SDS011;17258;52.560;13.046;2023-06-22T19:27:06;3.22;;;2.50;;
30466;SDS011;17258;52.560;13.046;2023-06-22T19:37:12;3.58;;;3.13;;
30466;SDS011;17258;52.560;13.046;2023-06-22T19:47:15;2.53;;;2.33;;
30466;SDS011;17258;52.560;13.046;2023-06-22T19:57:19;2.33;;;2.22;;
30466;SDS011;17258;52.560;13.046;2023-06-22T20:07:33;2.75;;;2.55;;
30466;SDS011;17258;52.560;13.046;2023-06-22T20:17:41;3.80;;;3.50;;
30466;SDS011;17258;52.560;13.046;2023-06-22T20:27:48;7.28;;;5.32;;
30466;SDS011;17258;52.560;13.046;2023-06-22T20:37:50;7.68;;;4.15;;
30466;SDS011;17258;52.560;13.046;2023-06-22T20:47:55;3.63;;;3.25;;
30466;SDS011;17258;52.560;13.046;2023-06-22T20:57:58;5.57;;;3.72;;
30466;SDS011;17258;52.560;13.046;2023-06-22T21:07:58;5.80;;;3.40;;
30466;SDS011;17258;52.560;13.046;2023-06-22T21:17:59;3.05;;;2.85;;
30466;SDS011;17258;52.560;13.046;2023-06-22T21:28:00;3.50;;;3.20;;
30466;SDS011;17258;52.560;13.046;2023-06-22T21:38:01;3.37;;;3.10;;
30466;SDS011;17258;52.560;13.046;2023-06-22T21:48:02;8.38;;;3.17;;
30466;SDS011;17258;52.560;13.046;2023-06-22T21:58:05;3.67;;;3.38;;
30466;SDS011;17258;52.560;13.046;2023-06-22T22:08:08;3.40;;;3.10;;
30466;SDS011;17258;52.560;13.046;2023-06-22T22:18:12;3.45;;;3.15;;
30466;SDS011;17258;52.560;13.046;2023-06-22T22:28:15;4.10;;;3.70;;
30466;SDS011;17258;52.560;13.046;2023-06-22T22:38:16;3.75;;;3.45;;
30466;SDS011;17258;52.560;13.046;2023-06-22T22:48:17;5.43;;;3.47;;
30466;SDS011;17258;52.560;13.046;2023-06-22T22:58:17;3.83;;;3.53;;
30466;SDS011;17258;52.560;13.046;2023-06-22T23:08:18;3.88;;;3.50;;
30466;SDS011;17258;52.560;13.046;2023-06-22T23:18:20;3.47;;;3.15;;
30466;SDS011;17258;52.560;13.046;2023-06-22T23:28:21;5.28;;;3.17;;
30466;SDS011;17258;52.560;13.046;2023-06-22T23:38:22;3.77;;;3.47;;
30466;SDS011;17258;52.560;13.046;2023-06-22T23:48:22;3.13;;;2.80;;
30466;SDS011;17258;52.560;13.046;2023-06-22T23:58:24;3.20;;;3.00;;
